Strona główna
METAR-TAF:

METAR-TAF

Lotnisko :

Zielona Góra, Polska

Port lotniczy Zielona Góra-Babimost

Szerokość geograficzna: 52-08-19N, Długość geograficzna: 015-47-55E, wysokość: 59 m

Aktualna obserwacja pogody

Raport powstał 19 minut temu, godzina 09:00 UTC
Wiatr 8 kt od północno-północny wschód, zmienny między północno-północny zachód i północny wschód
Temperatura -8°C
Wilgotność 62%
Ciśnienie 1033 hPa
Widzialność 10 km lub więcej
Brak chmur poniżej 1500 m i brak chmur cumulonimbus

METAR: EPZG 250900Z 02008KT 330V050 CAVOK M08/M14 Q1033

czas: 10:19 (09:19 UTC)

Prognoza

Raport powstał 49 minut temu, godzina 08:30 UTC
Prognoza ważna od 25 godzina 09 UTC do 25 godzina 18 UTC
Wiatr 8 kt od północno-północny wschód
Widzialność 10 km lub więcej
Brak chmur poniżej 1500 m i brak chmur cumulonimbus

TAF: EPZG 250830Z 2509/2518 02008KT CAVOK

Obserwacja i prognoza pogody dla ponad 4000 lotnisk (raport METAR i TAF).

Dostępne stacje oznaczono żółtymi i czerwonymi punktami na mapie.

Najedź kursorem aby zobaczyć nazwę stacji.

Kliknij aby zobaczyć obserwacje i prognozy pogody.

Aby zmienić mapę: kliknij na zielony przycisk z czarnym krzyżykiem, aby powiększyć; na zielony przycisk z myślnikiem, aby pomniejszyć; na zielone strzałki, aby przejść do map sąsiednich.


METAR-TAF: